createdAt,value
2023-02-02T00:00:56.111Z,100482.88
2023-02-02T00:03:59.557Z,100477.56
2023-02-02T00:07:05.624Z,100478.44
2023-02-02T00:10:09.338Z,100463.41
2023-02-02T00:13:12.502Z,100465.13
2023-02-02T00:16:39.624Z,100461.59
2023-02-02T00:19:42.435Z,100453.69
2023-02-02T00:22:46.619Z,100447.50
2023-02-02T00:25:52.042Z,100454.66
2023-02-02T00:28:55.147Z,100441.34
2023-02-02T00:31:58.726Z,100431.53
2023-02-02T00:35:01.611Z,100430.72
2023-02-02T00:38:05.934Z,100429.84
2023-02-02T00:41:08.863Z,100439.63
2023-02-02T00:44:29.637Z,100436.09
2023-02-02T00:47:32.594Z,100430.00
2023-02-02T00:50:35.369Z,100432.66
2023-02-02T00:53:39.752Z,100427.31
2023-02-02T00:56:42.845Z,100430.84
2023-02-02T00:59:46.281Z,100442.47
2023-02-02T01:02:49.113Z,100426.50
2023-02-02T01:05:52.100Z,100444.25
2023-02-02T01:08:56.316Z,100433.53
2023-02-02T01:11:59.321Z,100434.47
2023-02-02T01:15:02.741Z,100433.59
2023-02-02T01:18:07.626Z,100440.63
2023-02-02T01:21:14.048Z,100430.00
2023-02-02T01:24:18.307Z,100451.28
2023-02-02T01:27:21.198Z,100460.22
2023-02-02T01:30:24.099Z,100452.22
2023-02-02T01:33:26.986Z,100453.09
2023-02-02T01:36:30.298Z,100465.53
2023-02-02T01:39:35.566Z,100468.25
2023-02-02T01:42:38.438Z,100463.81
2023-02-02T01:45:41.284Z,100462.09
2023-02-02T01:48:47.883Z,100470.13
2023-02-02T01:51:54.558Z,100471.88
2023-02-02T01:55:01.917Z,100478.06
2023-02-02T01:58:10.658Z,100478.91
2023-02-02T02:01:15.636Z,100487.75
2023-02-02T02:04:18.962Z,100488.72
2023-02-02T02:07:22.298Z,100490.41
2023-02-02T02:10:26.945Z,100496.69
2023-02-02T02:13:45.758Z,100496.69
2023-02-02T02:17:01.107Z,100502.00
2023-02-02T02:20:54.046Z,100523.28
2023-02-02T02:25:01.717Z,100523.34
2023-02-02T02:28:34.323Z,100527.84
2023-02-02T02:32:04.003Z,100534.06
2023-02-02T02:35:16.037Z,100534.06
2023-02-02T02:38:26.802Z,100539.41
2023-02-02T02:41:36.974Z,100547.38
2023-02-02T02:44:39.902Z,100557.16
2023-02-02T02:47:45.531Z,100562.47
2023-02-02T02:50:48.624Z,100577.59
2023-02-02T02:53:51.576Z,100570.47
2023-02-02T02:57:16.563Z,100572.28
2023-02-02T03:00:47.987Z,100585.59
2023-02-02T03:04:06.387Z,100595.34
2023-02-02T03:07:13.625Z,100591.81
2023-02-02T03:10:20.121Z,100601.59
2023-02-02T03:13:23.173Z,100606.09
2023-02-02T03:16:25.969Z,100609.66
2023-02-02T03:19:30.132Z,100621.19
2023-02-02T03:22:32.982Z,100611.41
2023-02-02T03:25:35.914Z,100632.69
2023-02-02T03:28:38.768Z,100638.00
2023-02-02T03:31:41.789Z,100644.16
2023-02-02T03:34:45.973Z,100644.25
2023-02-02T03:37:49.298Z,100654.91
2023-02-02T03:40:52.676Z,100658.44
2023-02-02T03:43:55.606Z,100667.31
2023-02-02T03:46:58.470Z,100672.66
2023-02-02T03:50:02.851Z,100686.81
2023-02-02T03:53:06.041Z,100694.81
2023-02-02T03:56:08.889Z,100696.53
2023-02-02T03:59:11.743Z,100702.69
2023-02-02T04:02:14.568Z,100708.91
2023-02-02T04:05:19.185Z,100715.09
2023-02-02T04:08:22.041Z,100729.25
2023-02-02T04:11:25.045Z,100731.91
2023-02-02T04:14:27.882Z,100733.72
2023-02-02T04:17:30.689Z,100743.41
2023-02-02T04:20:34.875Z,100755.88
2023-02-02T04:23:38.107Z,100760.22
2023-02-02T04:26:41.444Z,100769.16
2023-02-02T04:29:44.263Z,100770.00
2023-02-02T04:32:47.161Z,100784.25
2023-02-02T04:35:51.518Z,100786.94
2023-02-02T04:38:55.277Z,100797.56
2023-02-02T04:41:58.211Z,100811.75
2023-02-02T04:45:01.007Z,100814.41
2023-02-02T04:48:04.482Z,100805.56
2023-02-02T04:51:11.475Z,100820.66
2023-02-02T04:54:14.873Z,100825.03
2023-02-02T04:57:17.730Z,100825.09
2023-02-02T05:00:21.117Z,100831.38
2023-02-02T05:03:24.351Z,100840.25
2023-02-02T05:06:28.628Z,100835.81
2023-02-02T05:09:31.437Z,100837.69
2023-02-02T05:12:34.361Z,100855.44
2023-02-02T05:15:37.259Z,100857.22
2023-02-02T05:18:40.145Z,100862.53
2023-02-02T05:21:45.714Z,100872.28
2023-02-02T05:24:48.539Z,100879.38
2023-02-02T05:27:51.367Z,100891.81
2023-02-02T05:30:54.369Z,100887.38
2023-02-02T05:33:57.151Z,100906.00
2023-02-02T05:37:01.283Z,100898.88
2023-02-02T05:40:04.201Z,100906.00
2023-02-02T05:43:07.240Z,100913.09
2023-02-02T05:46:10.070Z,100925.47
2023-02-02T05:49:14.442Z,100934.38
2023-02-02T05:52:23.218Z,100928.22
2023-02-02T05:55:26.418Z,100940.66
2023-02-02T05:58:29.538Z,100948.63
2023-02-02T06:01:32.363Z,100953.97
2023-02-02T06:04:35.374Z,100967.19
2023-02-02T06:07:39.546Z,100965.47
2023-02-02T06:10:43.077Z,100966.31
2023-02-02T06:13:46.379Z,100971.63
2023-02-02T06:16:49.193Z,100984.03
2023-02-02T06:19:52.049Z,100980.50
2023-02-02T06:22:56.412Z,100994.66
2023-02-02T06:25:59.866Z,101001.72
2023-02-02T06:29:03.262Z,101015.94
2023-02-02T06:32:06.164Z,101019.53
2023-02-02T06:35:10.623Z,101032.78
2023-02-02T06:38:14.882Z,101034.56
2023-02-02T06:41:17.690Z,101045.13
2023-02-02T06:44:21.036Z,101046.00
2023-02-02T06:47:26.587Z,101046.88
2023-02-02T06:50:29.714Z,101050.47
2023-02-02T06:53:34.884Z,101059.31
2023-02-02T06:56:37.731Z,101064.63
2023-02-02T06:59:41.033Z,101067.31
2023-02-02T07:02:46.413Z,101071.75
2023-02-02T07:05:50.148Z,101077.06
2023-02-02T07:09:02.690Z,101078.81
2023-02-02T07:12:06.179Z,101086.00
2023-02-02T07:15:10.041Z,101094.91
2023-02-02T07:18:12.879Z,101096.66
2023-02-02T07:21:19.088Z,101109.06
2023-02-02T07:24:23.491Z,101115.19
2023-02-02T07:27:26.403Z,101115.19
2023-02-02T07:30:30.079Z,101125.84
2023-02-02T07:33:38.707Z,101128.50
2023-02-02T07:36:41.950Z,101133.72
2023-02-02T07:39:46.566Z,101139.94
2023-02-02T07:42:50.002Z,101145.88
2023-02-02T07:45:52.891Z,101148.25
2023-02-02T07:48:56.602Z,101155.44
2023-02-02T07:51:59.918Z,101153.69
2023-02-02T07:55:14.455Z,101150.22
2023-02-02T07:58:18.063Z,101163.59
2023-02-02T08:01:22.924Z,101164.47
2023-02-02T08:04:26.020Z,101177.69
2023-02-02T08:07:28.925Z,101177.75
2023-02-02T08:10:33.254Z,101182.09
2023-02-02T08:13:36.098Z,101192.47
2023-02-02T08:16:38.992Z,101202.56
2023-02-02T08:19:41.903Z,101193.97
2023-02-02T08:22:44.722Z,101211.06
2023-02-02T08:25:48.953Z,101210.41
2023-02-02T08:28:54.692Z,101209.00
2023-02-02T08:31:57.646Z,101217.41
2023-02-02T08:35:00.598Z,101224.06
2023-02-02T08:38:05.643Z,101223.69
2023-02-02T08:41:12.337Z,101228.75
2023-02-02T08:44:16.954Z,101242.75
2023-02-02T08:47:20.101Z,101244.47
2023-02-02T08:50:23.108Z,101243.53
2023-02-02T08:53:27.160Z,101246.31
2023-02-02T08:56:31.681Z,101253.53
2023-02-02T08:59:34.575Z,101254.59
2023-02-02T09:02:37.484Z,101254.75
2023-02-02T09:05:40.446Z,101265.59
2023-02-02T09:08:43.911Z,101260.44
2023-02-02T09:11:48.258Z,101262.34
2023-02-02T09:14:51.103Z,101270.41
2023-02-02T09:17:54.356Z,101273.16
2023-02-02T09:21:00.999Z,101282.22
2023-02-02T09:24:08.284Z,101285.84
2023-02-02T09:27:12.501Z,101292.09
2023-02-02T09:30:15.991Z,101299.28
2023-02-02T09:33:18.861Z,101304.75
2023-02-02T09:36:23.430Z,101304.88
2023-02-02T09:39:26.429Z,101310.28
2023-02-02T09:42:45.173Z,101318.31
2023-02-02T09:45:56.716Z,101326.31
2023-02-02T09:49:03.074Z,101335.22
2023-02-02T09:52:13.279Z,101329.16
2023-02-02T09:55:23.346Z,101333.59
2023-02-02T09:58:31.712Z,101342.50
2023-02-02T10:01:38.090Z,101332.78
2023-02-02T10:04:45.049Z,101338.03
2023-02-02T10:07:52.632Z,101334.56
2023-02-02T10:10:55.877Z,101327.44
2023-02-02T10:14:06.377Z,101327.44
2023-02-02T10:17:26.387Z,101329.22
2023-02-02T10:20:38.448Z,101332.84
2023-02-02T10:23:44.310Z,101337.28
2023-02-02T10:26:49.561Z,101337.34
2023-02-02T10:29:59.952Z,101335.53
2023-02-02T10:33:07.778Z,101342.69
2023-02-02T10:36:17.783Z,101343.59
2023-02-02T10:39:31.954Z,101351.50
2023-02-02T10:43:04.836Z,101370.97
2023-02-02T10:46:15.143Z,101395.00
2023-02-02T10:49:28.077Z,101418.88
2023-02-02T10:52:33.627Z,101426.88
2023-02-02T10:55:42.428Z,101429.53
2023-02-02T10:58:51.838Z,101441.06
2023-02-02T11:01:56.109Z,101445.59
2023-02-02T11:05:16.536Z,101450.97
2023-02-02T11:08:21.536Z,101458.03
2023-02-02T11:11:27.192Z,101458.97
2023-02-02T11:14:44.989Z,101471.41
2023-02-02T11:17:50.652Z,101482.06
2023-02-02T11:20:54.019Z,101486.50
2023-02-02T11:24:01.207Z,101494.44
2023-02-02T11:27:08.789Z,101494.44
2023-02-02T11:30:21.957Z,101493.56
2023-02-02T11:33:33.096Z,101500.63
2023-02-02T11:36:36.007Z,101505.09
2023-02-02T11:39:39.004Z,101506.88
2023-02-02T11:42:46.745Z,101512.22
2023-02-02T11:45:55.698Z,101520.28
2023-02-02T11:49:03.607Z,101506.97
2023-02-02T11:52:08.650Z,101514.06
2023-02-02T11:55:18.384Z,101515.84
2023-02-02T11:58:24.948Z,101514.13
2023-02-02T12:01:30.302Z,101508.84
2023-02-02T12:04:34.651Z,101519.47
2023-02-02T12:07:37.723Z,101513.19
2023-02-02T12:10:46.435Z,101516.72
2023-02-02T12:14:00.837Z,101518.44
2023-02-02T12:17:21.656Z,101530.84
2023-02-02T12:20:37.644Z,101531.72
2023-02-02T12:24:05.954Z,101545.06
2023-02-02T12:27:24.114Z,101556.66
2023-02-02T12:30:35.123Z,101561.94
2023-02-02T12:33:47.836Z,101559.34
2023-02-02T12:37:03.708Z,101564.66
2023-02-02T12:40:32.870Z,101571.75
2023-02-02T12:43:41.861Z,101585.97
2023-02-02T12:47:01.911Z,101584.16
2023-02-02T12:50:18.600Z,101586.78
2023-02-02T12:53:37.759Z,101598.31
2023-02-02T12:56:50.069Z,101601.81
2023-02-02T13:00:09.971Z,101604.47
2023-02-02T13:03:29.481Z,101608.88
2023-02-02T13:06:53.825Z,101617.78
2023-02-02T13:10:24.930Z,101636.41
2023-02-02T13:13:32.438Z,101635.56
2023-02-02T13:16:38.217Z,101641.75
2023-02-02T13:19:43.506Z,101652.47
2023-02-02T13:22:48.632Z,101653.34
2023-02-02T13:26:01.302Z,101660.38
2023-02-02T13:29:09.353Z,101672.84
2023-02-02T13:32:19.895Z,101684.31
2023-02-02T13:35:26.923Z,101689.66
2023-02-02T13:38:33.649Z,101686.09
2023-02-02T13:41:38.698Z,101702.91
2023-02-02T13:44:48.017Z,101706.47
2023-02-02T13:47:58.844Z,101712.72
2023-02-02T13:51:27.258Z,101717.13
2023-02-02T13:55:21.264Z,101732.25
2023-02-02T13:58:54.164Z,101735.81
2023-02-02T14:02:00.408Z,101742.03
2023-02-02T14:05:07.179Z,101750.06
2023-02-02T14:08:21.319Z,101757.13
2023-02-02T14:11:28.281Z,101756.25
2023-02-02T14:14:35.765Z,101764.22
2023-02-02T14:17:56.428Z,101755.34
2023-02-02T14:20:59.763Z,101762.41
2023-02-02T14:24:03.440Z,101759.72
2023-02-02T14:27:55.985Z,101777.47
2023-02-02T14:31:34.422Z,101782.78
2023-02-02T14:34:40.327Z,101792.53
2023-02-02T14:37:50.787Z,101797.88
2023-02-02T14:40:58.478Z,101812.03
2023-02-02T14:44:04.553Z,101820.94
2023-02-02T14:47:40.505Z,101822.69
2023-02-02T14:50:50.406Z,101840.44
2023-02-02T14:53:55.919Z,101839.56
2023-02-02T14:57:01.618Z,101848.47
2023-02-02T15:00:05.245Z,101856.44
2023-02-02T15:03:37.852Z,101866.19
2023-02-02T15:06:43.241Z,101864.44
2023-02-02T15:09:46.153Z,101866.19
2023-02-02T15:12:50.310Z,101879.50
2023-02-02T15:16:04.848Z,101888.31
2023-02-02T15:19:21.914Z,101898.97
2023-02-02T15:22:33.100Z,101909.63
2023-02-02T15:25:42.421Z,101906.09
2023-02-02T15:28:49.946Z,101915.91
2023-02-02T15:31:56.018Z,101916.75
2023-02-02T15:35:02.791Z,101927.41
2023-02-02T15:38:13.919Z,101931.81
2023-02-02T15:41:22.466Z,101946.88
2023-02-02T15:44:29.893Z,101944.25
2023-02-02T15:47:36.734Z,101947.81
2023-02-02T15:50:46.290Z,101951.34
2023-02-02T15:53:51.924Z,101952.25
2023-02-02T15:56:56.109Z,101961.16
2023-02-02T15:59:59.907Z,101967.41
2023-02-02T16:03:05.973Z,101971.81
2023-02-02T16:06:09.485Z,101971.81
2023-02-02T16:09:25.008Z,101982.47
2023-02-02T16:12:27.986Z,101994.03
2023-02-02T16:15:31.866Z,101994.03
2023-02-02T16:18:36.334Z,101994.03
2023-02-02T16:21:44.913Z,102002.94
2023-02-02T16:24:52.805Z,102009.09
2023-02-02T16:27:56.239Z,102011.75
2023-02-02T16:31:01.695Z,102017.16
2023-02-02T16:34:04.928Z,102018.03
2023-02-02T16:37:13.283Z,102017.16
2023-02-02T16:40:24.243Z,102027.78
2023-02-02T16:43:29.708Z,102031.34
2023-02-02T16:46:45.626Z,102035.78
2023-02-02T16:49:48.509Z,102045.59
2023-02-02T16:52:54.525Z,102055.38
2023-02-02T16:55:59.052Z,102057.16
2023-02-02T16:59:06.426Z,102058.09
2023-02-02T17:02:24.794Z,102065.16
2023-02-02T17:05:30.056Z,102069.63
2023-02-02T17:08:35.094Z,102072.31
2023-02-02T17:11:39.301Z,102079.41
2023-02-02T17:14:53.166Z,102074.06
2023-02-02T17:17:56.043Z,102080.31
2023-02-02T17:21:04.294Z,102088.28
2023-02-02T17:24:07.610Z,102089.22
2023-02-02T17:27:17.564Z,102098.94
2023-02-02T17:30:20.965Z,102107.88
2023-02-02T17:33:24.625Z,102110.56
2023-02-02T17:36:27.442Z,102120.31
2023-02-02T17:39:30.290Z,102122.09
2023-02-02T17:42:35.687Z,102130.94
2023-02-02T17:45:39.565Z,102127.41
2023-02-02T17:48:42.729Z,102133.63
2023-02-02T17:51:45.571Z,102147.81
2023-02-02T17:54:48.392Z,102140.72
2023-02-02T17:57:54.051Z,102143.38
2023-02-02T18:00:58.972Z,102139.88
2023-02-02T18:04:02.092Z,102135.44
2023-02-02T18:07:07.552Z,102141.66
2023-02-02T18:10:12.453Z,102139.88
2023-02-02T18:13:17.631Z,102142.56
2023-02-02T18:16:21.386Z,102144.34
2023-02-02T18:19:24.290Z,102148.81
2023-02-02T18:22:27.566Z,102154.97
2023-02-02T18:25:30.405Z,102149.66
2023-02-02T18:28:34.967Z,102161.19
2023-02-02T18:31:38.735Z,102150.53
2023-02-02T18:34:42.790Z,102153.19
2023-02-02T18:37:45.579Z,102154.97
2023-02-02T18:40:55.920Z,102159.47
2023-02-02T18:44:00.091Z,102144.38
2023-02-02T18:47:02.922Z,102152.38
2023-02-02T18:50:06.477Z,102145.25
2023-02-02T18:53:09.301Z,102141.72
2023-02-02T18:56:13.879Z,102140.84
2023-02-02T18:59:18.388Z,102150.59
2023-02-02T19:02:21.199Z,102144.38
2023-02-02T19:05:41.250Z,102147.03
2023-02-02T19:08:44.021Z,102139.94
2023-02-02T19:11:48.959Z,102145.22
2023-02-02T19:14:53.338Z,102148.81
2023-02-02T19:17:56.353Z,102156.81
2023-02-02T19:20:59.179Z,102164.78
2023-02-02T19:24:02.466Z,102163.03
2023-02-02T19:27:15.817Z,102173.69
2023-02-02T19:30:23.799Z,102172.78
2023-02-02T19:33:38.802Z,102163.91
2023-02-02T19:36:46.688Z,102178.13
2023-02-02T19:39:49.499Z,102169.28
2023-02-02T19:42:56.580Z,102173.69
2023-02-02T19:46:01.833Z,102166.63
2023-02-02T19:49:12.571Z,102174.56
2023-02-02T19:52:19.855Z,102163.91
2023-02-02T19:55:25.637Z,102171.00
2023-02-02T19:58:35.432Z,102171.94
2023-02-02T20:01:40.521Z,102176.34
2023-02-02T20:04:43.322Z,102178.13
2023-02-02T20:07:46.513Z,102173.72
2023-02-02T20:10:49.619Z,102173.72
2023-02-02T20:13:53.047Z,102171.06
2023-02-02T20:17:02.155Z,102171.94
2023-02-02T20:20:20.496Z,102172.84
2023-02-02T20:23:42.160Z,102177.25
2023-02-02T20:26:46.009Z,102178.16
2023-02-02T20:29:50.940Z,102169.28
2023-02-02T20:32:58.032Z,102174.59
2023-02-02T20:36:02.606Z,102185.25
2023-02-02T20:39:27.181Z,102177.25
2023-02-02T20:42:30.802Z,102182.59
2023-02-02T20:45:33.636Z,102184.38
2023-02-02T20:48:37.949Z,102175.50
2023-02-02T20:51:41.286Z,102168.44
2023-02-02T20:54:44.077Z,102171.13
2023-02-02T20:57:46.985Z,102164.94
2023-02-02T21:00:49.950Z,102173.78
2023-02-02T21:03:54.174Z,102169.34
2023-02-02T21:06:58.646Z,102162.25
2023-02-02T21:10:01.578Z,102156.03
2023-02-02T21:13:04.482Z,102150.72
2023-02-02T21:16:08.433Z,102141.81
2023-02-02T21:19:12.632Z,102135.59
2023-02-02T21:22:15.750Z,102129.41
2023-02-02T21:25:18.661Z,102133.84
2023-02-02T21:28:31.674Z,102150.72
2023-02-02T21:31:37.377Z,102148.97
2023-02-02T21:34:41.682Z,102156.03
2023-02-02T21:37:46.868Z,102154.31
2023-02-02T21:40:51.588Z,102146.31
2023-02-02T21:43:54.430Z,102139.16
2023-02-02T21:46:57.231Z,102140.06
2023-02-02T21:50:14.997Z,102133.84
2023-02-02T21:53:21.056Z,102133.78
2023-02-02T21:56:28.242Z,102138.22
2023-02-02T21:59:36.704Z,102131.16
2023-02-02T22:02:44.499Z,102128.50
2023-02-02T22:05:49.026Z,102124.97
2023-02-02T22:08:54.531Z,102118.75
2023-02-02T22:12:00.647Z,102113.44
2023-02-02T22:15:04.918Z,102108.09
2023-02-02T22:18:14.628Z,102102.78
2023-02-02T22:21:21.029Z,102101.06
2023-02-02T22:24:24.002Z,102107.22
2023-02-02T22:27:32.215Z,102113.44
2023-02-02T22:30:38.776Z,102109.88
2023-02-02T22:33:41.617Z,102107.22
2023-02-02T22:36:45.991Z,102102.72
2023-02-02T22:39:48.827Z,102101.00
2023-02-02T22:42:52.423Z,102108.09
2023-02-02T22:45:55.328Z,102102.78
2023-02-02T22:48:58.167Z,102097.50
2023-02-02T22:52:02.318Z,102106.38
2023-02-02T22:55:05.424Z,102109.03
2023-02-02T22:58:08.287Z,102108.19
2023-02-02T23:01:11.810Z,102101.06
2023-02-02T23:04:14.666Z,102102.88
2023-02-02T23:07:18.899Z,102102.88
2023-02-02T23:13:26.699Z,102100.16
2023-02-02T23:16:29.557Z,102101.06
2023-02-02T23:19:32.423Z,102095.72
2023-02-02T23:22:36.762Z,102100.16
2023-02-02T23:25:39.608Z,102093.97
2023-02-02T23:28:42.511Z,102092.22
2023-02-02T23:31:45.325Z,102089.56
2023-02-02T23:34:48.190Z,102073.59
2023-02-02T23:37:52.382Z,102067.41
2023-02-02T23:40:55.231Z,102067.41
2023-02-02T23:43:58.199Z,102065.69
2023-02-02T23:47:02.720Z,102061.22
2023-02-02T23:50:09.122Z,102050.53
2023-02-02T23:53:14.104Z,102049.63
2023-02-02T23:56:17.788Z,102038.97
2023-02-02T23:59:20.571Z,102033.66
